Terminal Aerodrome Forecast
Issued by NWS Greer, SC

Home | Current Version | Previous Version | Text Only | Print | Product List | Glossary On
Versions: 1 2 3 4 5 6 7 8 9 10 11 12 13 14 15 16 17 18 19 20 21 22 23 24 25 26 27 28 29 30 31 32 33 34 35 36 37 38 39 40 41 42 43 44 45 46 47 48 49 50
000
FTUS42 KGSP 231700
TAFAVL
TAF
KAVL 231734Z 2318/2418 27003KT P6SM VCSH BKN035
     FM231900 26003KT P6SM VCTS BKN035CB BKN090
      TEMPO 2319/2322 4SM TSRA BKN040CB
     FM232200 24003KT P6SM BKN050
     FM241100 00000KT 1 1/2SM BR OVC002
     FM241300 00000KT P6SM BKN025 PROB30 2414/2418 2SM TSRA
      OVC015CB=

USA.gov is the U.S. government's official web portal to all federal, state and local government web resources and services.